Terminal Aerodrome Forecast
Issued by NWS Oklahoma City, OK

Home | Current Version | Previous Version | Text Only | Print | Product List | Glossary On
Versions: 1 2 3 4 5 6 7 8 9 10 11 12 13 14
000
FTUS44 KOUN 100521
TAFOUN
TAF
KOUN 100521Z 1006/1106 16009KT P6SM OVC035
     FM101500 17012G20KT P6SM BKN040
     FM110000 17014G18KT P6SM BKN200=

USA.gov is the U.S. government's official web portal to all federal, state and local government web resources and services.